sensor_id;sensor_type;location;lat;lon;timestamp;pressure;altitude;pressure_sealevel;temperature;humidity
37132;BME280;23035;50.032;21.978;2022-12-17T00:04:48;64994.97;;;-1.70;100.00
37132;BME280;23035;50.032;21.978;2022-12-17T00:10:12;65036.50;;;-1.28;100.00
37132;BME280;23035;50.032;21.978;2022-12-17T00:15:34;65025.03;;;-1.34;100.00
37132;BME280;23035;50.032;21.978;2022-12-17T00:20:59;65036.38;;;-1.30;100.00
37132;BME280;23035;50.032;21.978;2022-12-17T00:26:22;65014.19;;;-1.49;100.00
37132;BME280;23035;50.032;21.978;2022-12-17T00:31:44;65051.78;;;-1.16;100.00
37132;BME280;23035;50.032;21.978;2022-12-17T00:37:06;65117.13;;;-0.53;100.00
37132;BME280;23035;50.032;21.978;2022-12-17T00:42:37;65148.38;;;-0.25;100.00
37132;BME280;23035;50.032;21.978;2022-12-17T00:48:00;65246.00;;;0.75;100.00
37132;BME280;23035;50.032;21.978;2022-12-17T00:53:22;65302.41;;;1.29;100.00
37132;BME280;23035;50.032;21.978;2022-12-17T00:58:45;65276.84;;;1.05;100.00
37132;BME280;23035;50.032;21.978;2022-12-17T01:04:07;65206.22;;;0.27;100.00
37132;BME280;23035;50.032;21.978;2022-12-17T01:09:29;65096.31;;;-0.75;100.00
37132;BME280;23035;50.032;21.978;2022-12-17T01:14:52;65075.91;;;-0.88;100.00
37132;BME280;23035;50.032;21.978;2022-12-17T01:20:16;65029.59;;;-1.34;100.00
37132;BME280;23035;50.032;21.978;2022-12-17T01:25:38;65023.22;;;-1.40;100.00
37132;BME280;23035;50.032;21.978;2022-12-17T01:31:01;65081.75;;;-0.82;100.00
37132;BME280;23035;50.032;21.978;2022-12-17T01:36:23;65041.91;;;-1.20;100.00
37132;BME280;23035;50.032;21.978;2022-12-17T01:41:45;65075.69;;;-0.93;100.00
37132;BME280;23035;50.032;21.978;2022-12-17T01:47:09;65104.38;;;-0.65;100.00
37132;BME280;23035;50.032;21.978;2022-12-17T01:52:46;65032.88;;;-1.29;100.00
37132;BME280;23035;50.032;21.978;2022-12-17T01:58:08;64962.31;;;-1.96;100.00
37132;BME280;23035;50.032;21.978;2022-12-17T02:03:32;64992.75;;;-1.75;100.00
37132;BME280;23035;50.032;21.978;2022-12-17T02:09:01;64990.19;;;-1.75;100.00
37132;BME280;23035;50.032;21.978;2022-12-17T02:14:30;65032.66;;;-1.34;100.00
37132;BME280;23035;50.032;21.978;2022-12-17T02:20:07;65001.34;;;-1.64;100.00
37132;BME280;23035;50.032;21.978;2022-12-17T02:25:38;64968.03;;;-1.93;100.00
37132;BME280;23035;50.032;21.978;2022-12-17T02:31:05;64990.94;;;-1.69;100.00
37132;BME280;23035;50.032;21.978;2022-12-17T02:36:28;64960.38;;;-2.06;100.00
37132;BME280;23035;50.032;21.978;2022-12-17T02:41:52;64950.06;;;-2.08;100.00
37132;BME280;23035;50.032;21.978;2022-12-17T02:47:18;64939.78;;;-2.23;100.00
37132;BME280;23035;50.032;21.978;2022-12-17T02:52:45;64978.53;;;-1.86;100.00
37132;BME280;23035;50.032;21.978;2022-12-17T02:58:08;64990.63;;;-1.77;100.00
37132;BME280;23035;50.032;21.978;2022-12-17T03:03:31;65055.94;;;-1.14;100.00
37132;BME280;23035;50.032;21.978;2022-12-17T03:08:52;64983.81;;;-1.81;100.00
37132;BME280;23035;50.032;21.978;2022-12-17T03:14:15;64942.34;;;-2.23;100.00
37132;BME280;23035;50.032;21.978;2022-12-17T03:19:37;64975.34;;;-1.89;100.00
37132;BME280;23035;50.032;21.978;2022-12-17T03:24:59;64956.75;;;-2.07;100.00
37132;BME280;23035;50.032;21.978;2022-12-17T03:30:21;64889.09;;;-2.67;100.00
37132;BME280;23035;50.032;21.978;2022-12-17T03:35:53;64875.81;;;-2.79;100.00
37132;BME280;23035;50.032;21.978;2022-12-17T03:41:15;64902.13;;;-2.59;100.00
37132;BME280;23035;50.032;21.978;2022-12-17T03:46:36;64922.38;;;-2.37;100.00
37132;BME280;23035;50.032;21.978;2022-12-17T03:52:00;64890.69;;;-2.65;100.00
37132;BME280;23035;50.032;21.978;2022-12-17T03:57:21;64877.19;;;-2.83;100.00
37132;BME280;23035;50.032;21.978;2022-12-17T04:02:43;64868.19;;;-2.92;100.00
37132;BME280;23035;50.032;21.978;2022-12-17T04:08:06;64876.78;;;-2.81;100.00
37132;BME280;23035;50.032;21.978;2022-12-17T04:13:28;64913.78;;;-2.48;100.00
37132;BME280;23035;50.032;21.978;2022-12-17T04:18:50;64869.13;;;-2.93;100.00
37132;BME280;23035;50.032;21.978;2022-12-17T04:24:13;64863.31;;;-2.99;100.00
37132;BME280;23035;50.032;21.978;2022-12-17T04:29:34;64867.34;;;-2.88;100.00
37132;BME280;23035;50.032;21.978;2022-12-17T04:34:56;64959.63;;;-1.99;100.00
37132;BME280;23035;50.032;21.978;2022-12-17T04:40:19;64901.06;;;-2.60;100.00
37132;BME280;23035;50.032;21.978;2022-12-17T04:45:40;64865.00;;;-2.95;100.00
37132;BME280;23035;50.032;21.978;2022-12-17T04:51:02;64857.69;;;-2.99;100.00
37132;BME280;23035;50.032;21.978;2022-12-17T04:56:25;64849.88;;;-3.04;100.00
37132;BME280;23035;50.032;21.978;2022-12-17T05:01:48;64872.94;;;-2.87;100.00
37132;BME280;23035;50.032;21.978;2022-12-17T05:07:10;64897.56;;;-2.71;100.00
37132;BME280;23035;50.032;21.978;2022-12-17T05:12:33;64849.22;;;-3.07;100.00
37132;BME280;23035;50.032;21.978;2022-12-17T05:18:03;64853.88;;;-3.05;100.00
37132;BME280;23035;50.032;21.978;2022-12-17T05:23:24;64830.13;;;-3.26;100.00
37132;BME280;23035;50.032;21.978;2022-12-17T05:28:47;64815.72;;;-3.42;100.00
37132;BME280;23035;50.032;21.978;2022-12-17T05:34:17;64789.09;;;-3.70;100.00
37132;BME280;23035;50.032;21.978;2022-12-17T05:39:38;64803.53;;;-3.54;100.00
37132;BME280;23035;50.032;21.978;2022-12-17T05:45:01;64817.94;;;-3.37;100.00
37132;BME280;23035;50.032;21.978;2022-12-17T05:50:23;64803.41;;;-3.56;100.00
37132;BME280;23035;50.032;21.978;2022-12-17T05:55:47;64805.84;;;-3.47;100.00
37132;BME280;23035;50.032;21.978;2022-12-17T06:01:10;64848.78;;;-3.05;100.00
37132;BME280;23035;50.032;21.978;2022-12-17T06:06:32;64862.34;;;-2.97;100.00
37132;BME280;23035;50.032;21.978;2022-12-17T06:11:54;64923.88;;;-2.38;100.00
37132;BME280;23035;50.032;21.978;2022-12-17T06:17:17;64875.09;;;-2.85;100.00
37132;BME280;23035;50.032;21.978;2022-12-17T06:22:38;64905.41;;;-2.53;100.00
37132;BME280;23035;50.032;21.978;2022-12-17T06:28:00;64834.78;;;-3.24;100.00
37132;BME280;23035;50.032;21.978;2022-12-17T06:33:23;64812.53;;;-3.45;100.00
37132;BME280;23035;50.032;21.978;2022-12-17T06:38:45;64809.88;;;-3.48;100.00
37132;BME280;23035;50.032;21.978;2022-12-17T06:44:08;64809.34;;;-3.48;100.00
37132;BME280;23035;50.032;21.978;2022-12-17T06:49:31;64835.31;;;-3.23;100.00
37132;BME280;23035;50.032;21.978;2022-12-17T06:54:58;64828.44;;;-3.30;100.00
37132;BME280;23035;50.032;21.978;2022-12-17T07:00:19;65023.00;;;-1.46;100.00
37132;BME280;23035;50.032;21.978;2022-12-17T07:05:42;64850.69;;;-3.08;100.00
37132;BME280;23035;50.032;21.978;2022-12-17T07:11:04;64836.38;;;-3.22;100.00
37132;BME280;23035;50.032;21.978;2022-12-17T07:16:26;64837.97;;;-3.21;100.00
37132;BME280;23035;50.032;21.978;2022-12-17T07:21:49;64827.91;;;-3.30;100.00
37132;BME280;23035;50.032;21.978;2022-12-17T07:27:16;64858.13;;;-3.01;100.00
37132;BME280;23035;50.032;21.978;2022-12-17T07:32:37;64862.34;;;-2.97;100.00
37132;BME280;23035;50.032;21.978;2022-12-17T07:38:02;64808.19;;;-3.52;100.00
37132;BME280;23035;50.032;21.978;2022-12-17T07:43:24;64796.63;;;-3.60;100.00
37132;BME280;23035;50.032;21.978;2022-12-17T07:48:54;64812.72;;;-3.52;100.00
37132;BME280;23035;50.032;21.978;2022-12-17T07:54:17;64812.75;;;-3.40;100.00
37132;BME280;23035;50.032;21.978;2022-12-17T07:59:38;64779.91;;;-3.71;100.00
37132;BME280;23035;50.032;21.978;2022-12-17T08:05:00;64782.31;;;-3.74;100.00
37132;BME280;23035;50.032;21.978;2022-12-17T08:10:24;64767.19;;;-3.84;100.00
37132;BME280;23035;50.032;21.978;2022-12-17T08:15:46;64810.94;;;-3.47;100.00
37132;BME280;23035;50.032;21.978;2022-12-17T08:21:08;64802.97;;;-3.54;100.00
37132;BME280;23035;50.032;21.978;2022-12-17T08:26:32;64816.25;;;-3.41;100.00
37132;BME280;23035;50.032;21.978;2022-12-17T08:31:53;64871.38;;;-2.89;100.00
37132;BME280;23035;50.032;21.978;2022-12-17T08:37:15;64825.13;;;-3.35;100.00
37132;BME280;23035;50.032;21.978;2022-12-17T08:42:38;64836.69;;;-3.27;100.00
37132;BME280;23035;50.032;21.978;2022-12-17T08:48:03;64814.88;;;-3.38;100.00
37132;BME280;23035;50.032;21.978;2022-12-17T08:53:25;64816.78;;;-3.41;100.00
37132;BME280;23035;50.032;21.978;2022-12-17T08:58:48;64807.53;;;-3.55;100.00
37132;BME280;23035;50.032;21.978;2022-12-17T09:04:10;64941.38;;;-2.21;100.00
37132;BME280;23035;50.032;21.978;2022-12-17T09:09:32;64806.16;;;-3.51;100.00
37132;BME280;23035;50.032;21.978;2022-12-17T09:14:55;64876.16;;;-2.84;100.00
37132;BME280;23035;50.032;21.978;2022-12-17T09:20:16;64834.91;;;-3.21;100.00
37132;BME280;23035;50.032;21.978;2022-12-17T09:25:38;64823.13;;;-3.35;100.00
37132;BME280;23035;50.032;21.978;2022-12-17T09:31:01;64782.03;;;-3.69;100.00
37132;BME280;23035;50.032;21.978;2022-12-17T09:36:24;64897.47;;;-2.61;100.00
37132;BME280;23035;50.032;21.978;2022-12-17T09:41:57;65011.44;;;-1.54;100.00
37132;BME280;23035;50.032;21.978;2022-12-17T09:47:33;64900.00;;;-2.61;100.00
37132;BME280;23035;50.032;21.978;2022-12-17T09:52:59;64818.88;;;-3.39;100.00
37132;BME280;23035;50.032;21.978;2022-12-17T09:58:25;64818.34;;;-3.39;100.00
37132;BME280;23035;50.032;21.978;2022-12-17T10:03:55;64854.50;;;-3.02;100.00
37132;BME280;23035;50.032;21.978;2022-12-17T10:09:20;64898.84;;;-2.65;100.00
37132;BME280;23035;50.032;21.978;2022-12-17T10:15:05;64907.31;;;-2.56;100.00
37132;BME280;23035;50.032;21.978;2022-12-17T10:20:55;64906.59;;;-2.50;100.00
37132;BME280;23035;50.032;21.978;2022-12-17T10:26:34;64971.19;;;-1.90;100.00
37132;BME280;23035;50.032;21.978;2022-12-17T10:32:31;64948.38;;;-2.12;100.00
37132;BME280;23035;50.032;21.978;2022-12-17T10:37:54;64953.69;;;-2.07;100.00
37132;BME280;23035;50.032;21.978;2022-12-17T10:43:26;64915.59;;;-2.41;100.00
37132;BME280;23035;50.032;21.978;2022-12-17T10:48:50;64931.31;;;-2.31;100.00
37132;BME280;23035;50.032;21.978;2022-12-17T10:54:22;64902.66;;;-2.58;100.00
37132;BME280;23035;50.032;21.978;2022-12-17T10:59:51;65012.59;;;-1.51;100.00
37132;BME280;23035;50.032;21.978;2022-12-17T11:05:18;64987.53;;;-1.77;100.00
37132;BME280;23035;50.032;21.978;2022-12-17T11:11:21;65011.44;;;-1.54;100.00
37132;BME280;23035;50.032;21.978;2022-12-17T11:16:48;65022.69;;;-1.41;100.00
37132;BME280;23035;50.032;21.978;2022-12-17T11:22:19;64987.97;;;-1.79;100.00
37132;BME280;23035;50.032;21.978;2022-12-17T11:27:56;64943.91;;;-2.21;100.00
37132;BME280;23035;50.032;21.978;2022-12-17T11:33:21;64937.00;;;-2.28;100.00
37132;BME280;23035;50.032;21.978;2022-12-17T11:38:50;64847.72;;;-3.06;100.00
37132;BME280;23035;50.032;21.978;2022-12-17T11:44:20;64846.47;;;-3.12;100.00
37132;BME280;23035;50.032;21.978;2022-12-17T11:49:53;64849.09;;;-3.10;100.00
37132;BME280;23035;50.032;21.978;2022-12-17T11:55:23;64817.31;;;-3.40;100.00
37132;BME280;23035;50.032;21.978;2022-12-17T12:00:56;64809.34;;;-3.48;100.00
37132;BME280;23035;50.032;21.978;2022-12-17T12:06:27;64891.41;;;-2.72;100.00
37132;BME280;23035;50.032;21.978;2022-12-17T12:11:58;64855.47;;;-3.04;100.00
37132;BME280;23035;50.032;21.978;2022-12-17T12:17:40;64814.00;;;-3.46;100.00
37132;BME280;23035;50.032;21.978;2022-12-17T12:23:09;64790.25;;;-3.66;100.00
37132;BME280;23035;50.032;21.978;2022-12-17T12:28:38;64812.66;;;-3.42;100.00
37132;BME280;23035;50.032;21.978;2022-12-17T12:34:08;64931.31;;;-2.31;100.00
37132;BME280;23035;50.032;21.978;2022-12-17T12:39:36;64823.66;;;-3.34;100.00
37132;BME280;23035;50.032;21.978;2022-12-17T12:45:03;64909.44;;;-2.54;100.00
37132;BME280;23035;50.032;21.978;2022-12-17T12:50:37;64868.28;;;-2.89;100.00
37132;BME280;23035;50.032;21.978;2022-12-17T12:56:02;64907.13;;;-2.49;100.00
37132;BME280;23035;50.032;21.978;2022-12-17T13:01:32;64893.34;;;-2.63;100.00
37132;BME280;23035;50.032;21.978;2022-12-17T13:06:56;64936.81;;;-2.21;100.00
37132;BME280;23035;50.032;21.978;2022-12-17T13:12:21;65000.16;;;-1.67;100.00
37132;BME280;23035;50.032;21.978;2022-12-17T13:17:29;65001.44;;;-1.61;100.00
37132;BME280;23035;50.032;21.978;2022-12-17T13:22:48;64864.47;;;-2.95;100.00
37132;BME280;23035;50.032;21.978;2022-12-17T13:27:53;64808.19;;;-3.52;100.00
37132;BME280;23035;50.032;21.978;2022-12-17T13:33:07;64826.94;;;-3.29;100.00
37132;BME280;23035;50.032;21.978;2022-12-17T13:38:23;64810.41;;;-3.47;100.00
37132;BME280;23035;50.032;21.978;2022-12-17T13:43:30;64844.03;;;-3.10;100.00
37132;BME280;23035;50.032;21.978;2022-12-17T13:48:36;64786.03;;;-3.70;100.00
37132;BME280;23035;50.032;21.978;2022-12-17T13:53:50;64872.94;;;-2.87;100.00
37132;BME280;23035;50.032;21.978;2022-12-17T13:58:58;64890.97;;;-2.70;100.00
37132;BME280;23035;50.032;21.978;2022-12-17T14:04:19;64886.22;;;-2.74;100.00
37132;BME280;23035;50.032;21.978;2022-12-17T14:09:31;64837.88;;;-3.23;100.00
37132;BME280;23035;50.032;21.978;2022-12-17T14:14:37;64774.91;;;-3.81;100.00
37132;BME280;23035;50.032;21.978;2022-12-17T14:19:42;64804.06;;;-3.53;100.00
37132;BME280;23035;50.032;21.978;2022-12-17T14:24:48;64799.28;;;-3.58;100.00
37132;BME280;23035;50.032;21.978;2022-12-17T14:29:52;64840.09;;;-3.19;100.00
37132;BME280;23035;50.032;21.978;2022-12-17T14:34:58;64838.91;;;-3.22;100.00
37132;BME280;23035;50.032;21.978;2022-12-17T14:40:12;64865.00;;;-2.95;100.00
37132;BME280;23035;50.032;21.978;2022-12-17T14:45:22;64834.25;;;-3.24;100.00
37132;BME280;23035;50.032;21.978;2022-12-17T14:50:30;64904.78;;;-2.56;100.00
37132;BME280;23035;50.032;21.978;2022-12-17T14:55:38;64896.19;;;-2.67;100.00
37132;BME280;23035;50.032;21.978;2022-12-17T15:00:44;64955.28;;;-2.06;100.00
37132;BME280;23035;50.032;21.978;2022-12-17T15:05:52;64934.47;;;-2.28;100.00
37132;BME280;23035;50.032;21.978;2022-12-17T15:10:58;64995.19;;;-1.65;100.00
37132;BME280;23035;50.032;21.978;2022-12-17T15:16:03;64933.84;;;-2.31;100.00
37132;BME280;23035;50.032;21.978;2022-12-17T15:21:10;64811.47;;;-3.46;100.00
37132;BME280;23035;50.032;21.978;2022-12-17T15:26:16;64793.47;;;-3.63;100.00
37132;BME280;23035;50.032;21.978;2022-12-17T15:31:21;64793.47;;;-3.63;100.00
37132;BME280;23035;50.032;21.978;2022-12-17T15:36:30;64832.03;;;-3.29;100.00
37132;BME280;23035;50.032;21.978;2022-12-17T15:41:36;64759.00;;;-3.96;100.00
37132;BME280;23035;50.032;21.978;2022-12-17T15:46:56;64744.06;;;-4.13;100.00
37132;BME280;23035;50.032;21.978;2022-12-17T15:52:00;64733.06;;;-4.21;100.00
37132;BME280;23035;50.032;21.978;2022-12-17T15:57:06;64723.53;;;-4.30;100.00
37132;BME280;23035;50.032;21.978;2022-12-17T16:02:14;64737.28;;;-4.17;100.00
37132;BME280;23035;50.032;21.978;2022-12-17T16:07:18;64822.59;;;-3.35;100.00
37132;BME280;23035;50.032;21.978;2022-12-17T16:12:23;64905.28;;;-2.56;100.00
37132;BME280;23035;50.032;21.978;2022-12-17T16:17:27;64887.16;;;-2.76;100.00
37132;BME280;23035;50.032;21.978;2022-12-17T16:22:31;64812.22;;;-3.40;100.00
37132;BME280;23035;50.032;21.978;2022-12-17T16:27:37;64893.88;;;-2.62;100.00
37132;BME280;23035;50.032;21.978;2022-12-17T16:32:41;64844.03;;;-3.10;100.00
37132;BME280;23035;50.032;21.978;2022-12-17T16:37:45;64948.81;;;-2.14;100.00
37132;BME280;23035;50.032;21.978;2022-12-17T16:42:51;64886.22;;;-2.74;100.00
37132;BME280;23035;50.032;21.978;2022-12-17T16:47:58;64848.56;;;-3.10;100.00
37132;BME280;23035;50.032;21.978;2022-12-17T16:53:02;64861.28;;;-2.98;100.00
37132;BME280;23035;50.032;21.978;2022-12-17T16:58:11;64827.91;;;-3.30;100.00
37132;BME280;23035;50.032;21.978;2022-12-17T17:03:15;64810.94;;;-3.47;100.00
37132;BME280;23035;50.032;21.978;2022-12-17T17:08:19;64771.44;;;-3.80;100.00
37132;BME280;23035;50.032;21.978;2022-12-17T17:13:24;64754.78;;;-4.00;100.00
37132;BME280;23035;50.032;21.978;2022-12-17T17:18:28;64775.34;;;-3.83;100.00
37132;BME280;23035;50.032;21.978;2022-12-17T17:23:33;64849.09;;;-3.10;100.00
37132;BME280;23035;50.032;21.978;2022-12-17T17:28:38;64807.66;;;-3.52;100.00
37132;BME280;23035;50.032;21.978;2022-12-17T17:33:44;64780.84;;;-3.73;100.00
37132;BME280;23035;50.032;21.978;2022-12-17T17:38:51;64742.38;;;-4.17;100.00
37132;BME280;23035;50.032;21.978;2022-12-17T17:44:02;64756.91;;;-3.98;100.00
37132;BME280;23035;50.032;21.978;2022-12-17T17:49:08;64729.47;;;-4.22;100.00
37132;BME280;23035;50.032;21.978;2022-12-17T17:54:12;64743.66;;;-4.11;100.00
37132;BME280;23035;50.032;21.978;2022-12-17T17:59:18;64761.66;;;-3.94;100.00
37132;BME280;23035;50.032;21.978;2022-12-17T18:04:22;64784.97;;;-3.71;100.00
37132;BME280;23035;50.032;21.978;2022-12-17T18:09:26;64766.31;;;-3.92;100.00
37132;BME280;23035;50.032;21.978;2022-12-17T18:14:32;64816.88;;;-3.38;100.00
37132;BME280;23035;50.032;21.978;2022-12-17T18:19:43;64794.00;;;-3.63;100.00
37132;BME280;23035;50.032;21.978;2022-12-17T18:24:47;64774.91;;;-3.81;100.00
37132;BME280;23035;50.032;21.978;2022-12-17T18:29:52;64771.19;;;-3.85;100.00
37132;BME280;23035;50.032;21.978;2022-12-17T18:34:56;64769.31;;;-3.82;100.00
37132;BME280;23035;50.032;21.978;2022-12-17T18:40:01;64739.72;;;-4.20;100.00
37132;BME280;23035;50.032;21.978;2022-12-17T18:45:12;64752.25;;;-4.00;100.00
37132;BME280;23035;50.032;21.978;2022-12-17T18:50:16;64758.47;;;-3.97;100.00
37132;BME280;23035;50.032;21.978;2022-12-17T18:55:22;64787.19;;;-3.67;100.00
37132;BME280;23035;50.032;21.978;2022-12-17T19:00:28;64742.59;;;-4.12;100.00
37132;BME280;23035;50.032;21.978;2022-12-17T19:05:32;64791.31;;;-3.65;100.00
37132;BME280;23035;50.032;21.978;2022-12-17T19:10:36;64788.16;;;-3.68;100.00
37132;BME280;23035;50.032;21.978;2022-12-17T19:15:42;64799.81;;;-3.57;100.00
37132;BME280;23035;50.032;21.978;2022-12-17T19:20:46;64760.06;;;-3.95;100.00
37132;BME280;23035;50.032;21.978;2022-12-17T19:25:50;64745.47;;;-4.05;100.00
37132;BME280;23035;50.032;21.978;2022-12-17T19:30:56;64799.28;;;-3.58;100.00
37132;BME280;23035;50.032;21.978;2022-12-17T19:36:01;64812.53;;;-3.45;100.00
37132;BME280;23035;50.032;21.978;2022-12-17T19:41:06;64740.47;;;-4.14;100.00
37132;BME280;23035;50.032;21.978;2022-12-17T19:46:13;64761.66;;;-3.94;100.00
37132;BME280;23035;50.032;21.978;2022-12-17T19:51:20;64767.50;;;-3.88;100.00
37132;BME280;23035;50.032;21.978;2022-12-17T19:56:26;64793.47;;;-3.63;100.00
37132;BME280;23035;50.032;21.978;2022-12-17T20:01:32;64782.88;;;-3.73;100.00
37132;BME280;23035;50.032;21.978;2022-12-17T20:06:37;64857.69;;;-2.99;100.00
37132;BME280;23035;50.032;21.978;2022-12-17T20:11:41;64767.06;;;-3.86;100.00
37132;BME280;23035;50.032;21.978;2022-12-17T20:16:50;64814.66;;;-3.43;100.00
37132;BME280;23035;50.032;21.978;2022-12-17T20:21:55;64766.66;;;-3.84;100.00
37132;BME280;23035;50.032;21.978;2022-12-17T20:26:59;64759.00;;;-3.96;100.00
37132;BME280;23035;50.032;21.978;2022-12-17T20:32:05;64789.75;;;-3.67;100.00
37132;BME280;23035;50.032;21.978;2022-12-17T20:37:09;64787.84;;;-3.64;100.00
37132;BME280;23035;50.032;21.978;2022-12-17T20:42:13;64785.50;;;-3.71;100.00
37132;BME280;23035;50.032;21.978;2022-12-17T20:47:20;64779.66;;;-3.77;100.00
37132;BME280;23035;50.032;21.978;2022-12-17T20:52:24;64809.25;;;-3.51;100.00
37132;BME280;23035;50.032;21.978;2022-12-17T20:57:28;64734.66;;;-4.20;100.00
37132;BME280;23035;50.032;21.978;2022-12-17T21:02:34;64730.81;;;-4.26;100.00
37132;BME280;23035;50.032;21.978;2022-12-17T21:07:39;64741.13;;;-4.11;100.00
37132;BME280;23035;50.032;21.978;2022-12-17T21:12:43;64710.41;;;-4.41;100.00
37132;BME280;23035;50.032;21.978;2022-12-17T21:18:06;64736.53;;;-4.23;100.00
37132;BME280;23035;50.032;21.978;2022-12-17T21:23:10;64710.81;;;-4.43;100.00
37132;BME280;23035;50.032;21.978;2022-12-17T21:28:14;64715.69;;;-4.36;100.00
37132;BME280;23035;50.032;21.978;2022-12-17T21:33:27;64684.88;;;-4.68;100.00
37132;BME280;23035;50.032;21.978;2022-12-17T21:38:31;64724.59;;;-4.29;100.00
37132;BME280;23035;50.032;21.978;2022-12-17T21:43:36;64754.47;;;-3.96;100.00
37132;BME280;23035;50.032;21.978;2022-12-17T21:48:42;64743.53;;;-4.14;100.00
37132;BME280;23035;50.032;21.978;2022-12-17T21:53:51;64735.41;;;-4.14;100.00
37132;BME280;23035;50.032;21.978;2022-12-17T21:58:57;64712.41;;;-4.41;100.00
37132;BME280;23035;50.032;21.978;2022-12-17T22:04:03;64739.94;;;-4.15;100.00
37132;BME280;23035;50.032;21.978;2022-12-17T22:09:07;64702.88;;;-4.50;100.00
37132;BME280;23035;50.032;21.978;2022-12-17T22:14:27;64689.63;;;-4.63;100.00
37132;BME280;23035;50.032;21.978;2022-12-17T22:19:32;64704.16;;;-4.44;100.00
37132;BME280;23035;50.032;21.978;2022-12-17T22:24:36;64662.13;;;-4.89;100.00
37132;BME280;23035;50.032;21.978;2022-12-17T22:29:40;64657.88;;;-4.94;100.00
37132;BME280;23035;50.032;21.978;2022-12-17T22:35:03;64648.34;;;-5.03;100.00
37132;BME280;23035;50.032;21.978;2022-12-17T22:40:28;64647.28;;;-5.04;100.00
37132;BME280;23035;50.032;21.978;2022-12-17T22:51:21;64687.09;;;-4.63;100.00
37132;BME280;23035;50.032;21.978;2022-12-17T22:56:33;64711.56;;;-4.37;100.00
37132;BME280;23035;50.032;21.978;2022-12-17T23:01:57;64679.19;;;-4.71;100.00
37132;BME280;23035;50.032;21.978;2022-12-17T23:07:02;64658.28;;;-4.96;100.00
37132;BME280;23035;50.032;21.978;2022-12-17T23:12:06;64688.56;;;-4.64;100.00
37132;BME280;23035;50.032;21.978;2022-12-17T23:17:24;64738.88;;;-4.16;100.00
37132;BME280;23035;50.032;21.978;2022-12-17T23:22:30;64727.75;;;-4.26;100.00
37132;BME280;23035;50.032;21.978;2022-12-17T23:27:34;64715.59;;;-4.38;100.00
37132;BME280;23035;50.032;21.978;2022-12-17T23:32:38;64692.50;;;-4.55;100.00
37132;BME280;23035;50.032;21.978;2022-12-17T23:37:44;64756.91;;;-3.98;100.00
37132;BME280;23035;50.032;21.978;2022-12-17T23:42:48;64730.63;;;-4.19;100.00
37132;BME280;23035;50.032;21.978;2022-12-17T23:47:52;64761.25;;;-3.92;100.00
37132;BME280;23035;50.032;21.978;2022-12-17T23:53:01;64715.06;;;-4.39;100.00
37132;BME280;23035;50.032;21.978;2022-12-17T23:58:05;64767.19;;;-3.84;100.00
